Time,TemperatureF,DewpointF,PressureIn,WindDirection,WindDirectionDegrees,WindSpeedMPH,WindSpeedGustMPH,Humidity,HourlyPrecipIn,Conditions,Clouds,dailyrainin,SoftwareType,DateUTC
2013-10-06 00:04:00,61.1,60.8,29.69,ESE,103,1.0,1.0,99,0.00,,,0.07,Wunderground v.1.15,2013-10-06 04:04:00,
2013-10-06 00:09:00,61.1,60.8,29.69,ESE,103,1.0,4.0,99,0.00,,,0.00,Wunderground v.1.15,2013-10-06 04:09:00,
2013-10-06 00:14:00,61.1,60.8,29.68,ESE,103,0.0,4.0,99,0.00,,,0.00,Wunderground v.1.15,2013-10-06 04:14:00,
2013-10-06 00:19:00,61.0,60.7,29.68,ESE,103,1.0,4.0,99,0.00,,,0.00,Wunderground v.1.15,2013-10-06 04:19:00,
2013-10-06 00:24:00,61.0,60.7,29.68,ESE,103,1.0,1.0,99,0.00,,,0.00,Wunderground v.1.15,2013-10-06 04:24:00,
2013-10-06 00:29:00,61.0,60.7,29.68,ESE,103,1.0,4.0,99,0.00,,,0.00,Wunderground v.1.15,2013-10-06 04:29:00,
2013-10-06 00:34:00,61.0,60.7,29.68,ESE,103,0.0,4.0,99,0.00,,,0.00,Wunderground v.1.15,2013-10-06 04:34:00,
2013-10-06 00:39:00,61.0,60.7,29.68,ESE,103,1.0,4.0,99,0.00,,,0.00,Wunderground v.1.15,2013-10-06 04:39:00,
2013-10-06 00:44:00,61.0,60.7,29.68,ESE,103,0.0,4.0,99,0.00,,,0.00,Wunderground v.1.15,2013-10-06 04:44:00,
2013-10-06 00:49:00,61.1,60.8,29.68,ESE,103,0.0,4.0,99,0.00,,,0.00,Wunderground v.1.15,2013-10-06 04:49:00,
2013-10-06 00:54:00,61.0,60.7,29.68,ESE,103,0.0,4.0,99,0.00,,,0.00,Wunderground v.1.15,2013-10-06 04:54:00,
2013-10-06 00:59:00,61.0,60.7,29.68,ESE,103,0.0,4.0,99,0.00,,,0.01,Wunderground v.1.15,2013-10-06 04:59:00,
2013-10-06 01:04:00,61.0,60.7,29.68,ESE,103,0.0,4.0,99,0.11,,,0.02,Wunderground v.1.15,2013-10-06 05:04:00,
2013-10-06 01:09:00,61.0,60.7,29.68,ESE,103,0.0,4.0,99,0.07,,,0.02,Wunderground v.1.15,2013-10-06 05:09:00,
2013-10-06 01:14:00,61.0,60.7,29.69,ESE,103,0.0,4.0,99,0.04,,,0.02,Wunderground v.1.15,2013-10-06 05:14:00,
2013-10-06 01:19:00,61.0,60.7,29.69,ESE,103,0.0,4.0,99,0.00,,,0.02,Wunderground v.1.15,2013-10-06 05:19:00,
2013-10-06 01:24:00,61.1,60.8,29.68,ESE,103,0.0,4.0,99,0.00,,,0.02,Wunderground v.1.15,2013-10-06 05:24:00,
2013-10-06 01:29:00,61.1,60.8,29.68,ESE,103,0.0,4.0,99,0.00,,,0.02,Wunderground v.1.15,2013-10-06 05:29:00,
2013-10-06 01:34:00,61.1,60.8,29.68,ESE,103,0.0,4.0,99,0.00,,,0.02,Wunderground v.1.15,2013-10-06 05:34:00,
2013-10-06 01:39:00,61.0,60.7,29.68,ESE,103,0.0,4.0,99,0.00,,,0.02,Wunderground v.1.15,2013-10-06 05:39:00,
2013-10-06 01:44:00,61.0,60.7,29.68,ESE,103,0.0,4.0,99,0.00,,,0.02,Wunderground v.1.15,2013-10-06 05:44:00,
2013-10-06 01:49:00,60.9,60.6,29.67,ESE,103,0.0,4.0,99,0.00,,,0.02,Wunderground v.1.15,2013-10-06 05:49:00,
2013-10-06 01:59:00,60.9,60.6,29.67,ESE,103,0.0,4.0,99,0.00,,,0.02,Wunderground v.1.15,2013-10-06 05:59:00,
2013-10-06 02:04:00,60.9,60.6,29.67,ESE,103,0.0,4.0,99,0.00,,,0.02,Wunderground v.1.15,2013-10-06 06:04:00,
2013-10-06 02:09:00,60.9,60.6,29.67,ESE,103,0.0,4.0,99,0.00,,,0.02,Wunderground v.1.15,2013-10-06 06:09:00,
2013-10-06 02:14:00,60.9,60.6,29.67,ESE,103,0.0,4.0,99,0.00,,,0.02,Wunderground v.1.15,2013-10-06 06:14:00,
2013-10-06 02:19:00,60.9,60.6,29.66,ESE,103,0.0,4.0,99,0.00,,,0.02,Wunderground v.1.15,2013-10-06 06:19:00,
2013-10-06 02:24:00,60.9,60.6,29.66,ESE,103,0.0,4.0,99,0.00,,,0.02,Wunderground v.1.15,2013-10-06 06:24:00,
2013-10-06 02:29:00,60.9,60.6,29.66,ESE,103,0.0,4.0,99,0.00,,,0.02,Wunderground v.1.15,2013-10-06 06:29:00,
2013-10-06 02:34:00,60.9,60.6,29.66,ESE,103,0.0,4.0,99,0.00,,,0.02,Wunderground v.1.15,2013-10-06 06:34:00,
2013-10-06 02:39:00,60.9,60.6,29.66,ESE,103,0.0,4.0,99,0.00,,,0.02,Wunderground v.1.15,2013-10-06 06:39:00,
2013-10-06 02:44:00,60.9,60.6,29.66,ESE,103,0.0,4.0,99,0.00,,,0.02,Wunderground v.1.15,2013-10-06 06:44:00,
2013-10-06 02:49:00,61.1,60.8,29.66,ESE,103,1.0,4.0,99,0.00,,,0.02,Wunderground v.1.15,2013-10-06 06:49:00,
2013-10-06 02:54:00,61.1,60.8,29.66,ESE,103,2.0,2.0,99,0.00,,,0.02,Wunderground v.1.15,2013-10-06 06:54:00,
2013-10-06 02:59:00,61.2,60.9,29.66,ESE,103,2.0,4.0,99,0.00,,,0.02,Wunderground v.1.15,2013-10-06 06:59:00,
2013-10-06 03:04:00,61.2,60.9,29.66,ESE,103,2.0,4.0,99,0.00,,,0.02,Wunderground v.1.15,2013-10-06 07:04:00,
2013-10-06 03:09:00,61.3,61.0,29.65,ESE,103,1.0,4.0,99,0.00,,,0.02,Wunderground v.1.15,2013-10-06 07:09:00,
2013-10-06 03:14:00,61.3,61.0,29.65,ESE,103,0.0,4.0,99,0.00,,,0.02,Wunderground v.1.15,2013-10-06 07:14:00,
2013-10-06 03:19:00,61.3,61.0,29.65,ESE,103,0.0,4.0,99,0.00,,,0.02,Wunderground v.1.15,2013-10-06 07:19:00,
2013-10-06 03:24:00,61.3,61.0,29.65,ESE,103,0.0,4.0,99,0.00,,,0.02,Wunderground v.1.15,2013-10-06 07:24:00,
2013-10-06 03:29:00,61.3,61.0,29.65,ESE,103,0.0,4.0,99,0.00,,,0.02,Wunderground v.1.15,2013-10-06 07:29:00,
2013-10-06 03:34:00,61.4,61.1,29.65,ESE,103,0.0,4.0,99,0.00,,,0.02,Wunderground v.1.15,2013-10-06 07:34:00,
2013-10-06 03:39:00,61.4,61.1,29.65,ESE,103,0.0,4.0,99,0.00,,,0.02,Wunderground v.1.15,2013-10-06 07:39:00,
2013-10-06 03:44:00,61.4,61.1,29.65,ESE,103,1.0,1.0,99,0.00,,,0.02,Wunderground v.1.15,2013-10-06 07:44:00,
2013-10-06 03:49:00,61.5,61.2,29.65,ESE,103,1.0,4.0,99,0.00,,,0.02,Wunderground v.1.15,2013-10-06 07:49:00,
2013-10-06 03:54:00,61.5,61.2,29.65,ESE,103,0.0,4.0,99,0.00,,,0.02,Wunderground v.1.15,2013-10-06 07:54:00,
2013-10-06 03:59:00,61.5,61.2,29.65,ESE,103,1.0,4.0,99,0.00,,,0.02,Wunderground v.1.15,2013-10-06 07:59:00,
2013-10-06 04:04:00,61.6,61.3,29.65,ESE,103,0.0,4.0,99,0.00,,,0.02,Wunderground v.1.15,2013-10-06 08:04:00,
2013-10-06 04:09:00,61.6,61.3,29.65,ESE,103,0.0,4.0,99,0.00,,,0.02,Wunderground v.1.15,2013-10-06 08:09:00,
2013-10-06 04:14:00,61.6,61.3,29.65,ESE,103,0.0,4.0,99,0.00,,,0.03,Wunderground v.1.15,2013-10-06 08:14:00,
2013-10-06 04:19:00,61.6,61.3,29.65,ESE,103,0.0,4.0,99,0.00,,,0.03,Wunderground v.1.15,2013-10-06 08:19:00,
2013-10-06 04:24:00,61.6,61.3,29.65,ESE,103,0.0,4.0,99,0.00,,,0.03,Wunderground v.1.15,2013-10-06 08:24:00,
2013-10-06 04:29:00,61.7,61.4,29.65,ESE,103,0.0,4.0,99,0.00,,,0.03,Wunderground v.1.15,2013-10-06 08:29:00,
2013-10-06 04:34:00,61.7,61.4,29.65,ESE,103,0.0,4.0,99,0.00,,,0.03,Wunderground v.1.15,2013-10-06 08:34:00,
2013-10-06 04:39:00,61.7,61.4,29.65,ESE,103,0.0,4.0,99,0.00,,,0.03,Wunderground v.1.15,2013-10-06 08:39:00,
2013-10-06 04:49:00,62.0,61.7,29.65,ESE,103,1.0,4.0,99,0.00,,,0.03,Wunderground v.1.15,2013-10-06 08:49:00,
2013-10-06 04:54:00,62.1,61.8,29.65,ESE,103,0.0,4.0,99,0.00,,,0.03,Wunderground v.1.15,2013-10-06 08:54:00,
2013-10-06 04:59:00,62.2,61.9,29.65,ESE,103,1.0,4.0,99,0.00,,,0.03,Wunderground v.1.15,2013-10-06 08:59:00,
2013-10-06 05:04:00,62.5,62.5,29.65,ESE,103,1.0,1.0,100,0.00,,,0.03,Wunderground v.1.15,2013-10-06 09:04:00,
2013-10-06 05:09:00,62.6,62.3,29.65,ESE,103,1.0,4.0,99,0.00,,,0.03,Wunderground v.1.15,2013-10-06 09:09:00,
2013-10-06 05:14:00,62.7,62.4,29.65,WSW,238,2.0,2.0,99,0.00,,,0.03,Wunderground v.1.15,2013-10-06 09:14:00,
2013-10-06 05:19:00,62.7,62.4,29.64,WSW,238,2.0,3.0,99,0.00,,,0.03,Wunderground v.1.15,2013-10-06 09:19:00,
2013-10-06 05:24:00,62.8,62.5,29.65,WSW,238,2.0,4.0,99,0.00,,,0.03,Wunderground v.1.15,2013-10-06 09:24:00,
2013-10-06 05:29:00,62.8,62.5,29.65,WSW,238,2.0,4.0,99,0.00,,,0.03,Wunderground v.1.15,2013-10-06 09:29:00,
2013-10-06 05:34:00,62.9,62.6,29.65,WSW,238,1.0,4.0,99,0.00,,,0.03,Wunderground v.1.15,2013-10-06 09:34:00,
2013-10-06 05:39:00,63.0,62.7,29.64,WSW,238,1.0,4.0,99,0.00,,,0.03,Wunderground v.1.15,2013-10-06 09:39:00,
2013-10-06 05:44:00,63.1,62.8,29.65,WSW,238,1.0,1.0,99,0.00,,,0.03,Wunderground v.1.15,2013-10-06 09:44:00,
2013-10-06 05:49:00,63.2,62.9,29.65,WSW,238,1.0,4.0,99,0.00,,,0.03,Wunderground v.1.15,2013-10-06 09:49:00,
2013-10-06 05:54:00,63.3,63.0,29.65,WSW,238,2.0,4.0,99,0.00,,,0.03,Wunderground v.1.15,2013-10-06 09:54:00,
2013-10-06 05:59:00,63.4,63.1,29.65,WSW,238,2.0,4.0,99,0.00,,,0.03,Wunderground v.1.15,2013-10-06 09:59:00,
2013-10-06 06:04:00,63.4,63.1,29.64,WSW,238,1.0,1.0,99,0.00,,,0.03,Wunderground v.1.15,2013-10-06 10:04:00,
2013-10-06 06:09:00,63.4,63.1,29.65,WSW,238,0.0,4.0,99,0.00,,,0.03,Wunderground v.1.15,2013-10-06 10:09:00,
2013-10-06 06:14:00,63.4,63.1,29.65,WSW,238,0.0,4.0,99,0.00,,,0.03,Wunderground v.1.15,2013-10-06 10:14:00,
2013-10-06 06:19:00,63.4,63.1,29.64,WSW,238,0.0,4.0,99,0.00,,,0.03,Wunderground v.1.15,2013-10-06 10:19:00,
2013-10-06 06:24:00,63.3,63.0,29.64,WSW,238,0.0,4.0,99,0.00,,,0.03,Wunderground v.1.15,2013-10-06 10:24:00,
2013-10-06 06:29:00,63.3,63.0,29.65,WSW,238,0.0,4.0,99,0.00,,,0.03,Wunderground v.1.15,2013-10-06 10:29:00,
2013-10-06 06:34:00,63.3,63.0,29.65,WSW,238,0.0,4.0,99,0.00,,,0.03,Wunderground v.1.15,2013-10-06 10:34:00,
2013-10-06 06:39:00,63.3,63.0,29.65,WSW,238,0.0,4.0,99,0.00,,,0.03,Wunderground v.1.15,2013-10-06 10:39:00,
2013-10-06 06:49:00,63.3,63.0,29.64,WSW,238,1.0,4.0,99,0.00,,,0.04,Wunderground v.1.15,2013-10-06 10:49:00,
2013-10-06 06:54:00,63.4,63.1,29.64,WSW,253,2.0,7.0,99,0.00,,,0.04,Wunderground v.1.15,2013-10-06 10:54:00,
2013-10-06 06:59:00,63.5,63.2,29.65,SW,218,4.0,7.0,99,0.00,,,0.04,Wunderground v.1.15,2013-10-06 10:59:00,
2013-10-06 07:09:00,63.6,63.3,29.65,SW,234,2.0,6.0,99,0.00,,,0.04,Wunderground v.1.15,2013-10-06 11:09:00,
2013-10-06 07:14:00,63.7,63.4,29.65,WSW,248,3.0,3.0,99,0.00,,,0.04,Wunderground v.1.15,2013-10-06 11:14:00,
2013-10-06 07:19:00,63.8,63.5,29.65,WSW,248,2.0,4.0,99,0.00,,,0.04,Wunderground v.1.15,2013-10-06 11:19:00,
2013-10-06 07:29:00,63.6,63.3,29.65,WSW,249,4.0,7.0,99,0.67,,,0.08,Wunderground v.1.15,2013-10-06 11:29:00,
2013-10-06 07:34:00,63.7,63.4,29.64,WSW,245,6.0,7.0,99,0.16,,,0.09,Wunderground v.1.15,2013-10-06 11:34:00,
2013-10-06 07:39:00,63.7,63.4,29.64,WSW,242,7.0,7.0,99,0.07,,,0.09,Wunderground v.1.15,2013-10-06 11:39:00,
2013-10-06 07:44:00,63.7,63.4,29.64,WSW,251,7.0,7.0,99,0.04,,,0.09,Wunderground v.1.15,2013-10-06 11:44:00,
2013-10-06 07:49:00,63.8,63.5,29.64,WSW,246,6.0,7.0,99,0.00,,,0.09,Wunderground v.1.15,2013-10-06 11:49:00,
2013-10-06 07:54:00,63.9,63.6,29.64,WSW,252,6.0,6.0,99,0.00,,,0.09,Wunderground v.1.15,2013-10-06 11:54:00,
2013-10-06 07:59:00,63.9,63.6,29.64,WSW,254,6.0,7.0,99,0.00,,,0.09,Wunderground v.1.15,2013-10-06 11:59:00,
2013-10-06 08:04:00,64.0,63.7,29.65,West,262,6.0,8.0,99,0.00,,,0.09,Wunderground v.1.15,2013-10-06 12:04:00,
2013-10-06 08:09:00,64.1,63.8,29.65,WSW,240,7.0,8.0,99,0.00,,,0.09,Wunderground v.1.15,2013-10-06 12:09:00,
2013-10-06 08:14:00,64.1,63.8,29.64,SW,235,6.0,6.0,99,0.00,,,0.09,Wunderground v.1.15,2013-10-06 12:14:00,
2013-10-06 08:19:00,64.2,63.9,29.64,WSW,246,6.0,7.0,99,0.00,,,0.09,Wunderground v.1.15,2013-10-06 12:19:00,
2013-10-06 08:24:00,64.4,64.1,29.64,WSW,257,7.0,7.0,99,0.00,,,0.09,Wunderground v.1.15,2013-10-06 12:24:00,
2013-10-06 08:29:00,64.5,64.2,29.65,WSW,237,7.0,8.0,99,0.00,,,0.09,Wunderground v.1.15,2013-10-06 12:29:00,
2013-10-06 08:34:00,64.5,64.2,29.65,WSW,257,8.0,9.0,99,0.00,,,0.09,Wunderground v.1.15,2013-10-06 12:34:00,
2013-10-06 08:39:00,64.6,64.3,29.65,WSW,252,9.0,10.0,99,0.00,,,0.10,Wunderground v.1.15,2013-10-06 12:39:00,
2013-10-06 08:44:00,64.6,64.3,29.65,WSW,243,9.0,9.0,99,0.00,,,0.10,Wunderground v.1.15,2013-10-06 12:44:00,
2013-10-06 08:49:00,64.7,64.4,29.65,WSW,248,9.0,11.0,99,0.06,,,0.11,Wunderground v.1.15,2013-10-06 12:49:00,
2013-10-06 08:54:00,64.7,64.4,29.65,WSW,252,9.0,9.0,99,0.08,,,0.12,Wunderground v.1.15,2013-10-06 12:54:00,
2013-10-06 08:59:00,64.8,64.5,29.65,WSW,254,9.0,9.0,99,0.21,,,0.13,Wunderground v.1.15,2013-10-06 12:59:00,
2013-10-06 09:04:00,64.9,64.6,29.64,WSW,239,8.0,8.0,99,0.13,,,0.14,Wunderground v.1.15,2013-10-06 13:04:00,
2013-10-06 09:09:00,64.9,64.6,29.65,WSW,248,9.0,11.0,99,0.06,,,0.14,Wunderground v.1.15,2013-10-06 13:09:00,
2013-10-06 09:14:00,65.1,64.8,29.64,WSW,251,9.0,9.0,99,0.04,,,0.14,Wunderground v.1.15,2013-10-06 13:14:00,
2013-10-06 09:19:00,65.2,64.9,29.64,WSW,242,7.0,9.0,99,0.00,,,0.14,Wunderground v.1.15,2013-10-06 13:19:00,
2013-10-06 09:29:00,65.4,65.1,29.64,SW,230,6.0,6.0,99,0.65,,,0.17,Wunderground v.1.15,2013-10-06 13:29:00,
2013-10-06 09:34:00,65.4,65.1,29.64,West,267,7.0,10.0,99,0.10,,,0.17,Wunderground v.1.15,2013-10-06 13:34:00,
2013-10-06 09:39:00,65.4,65.1,29.64,West,264,8.0,10.0,99,0.05,,,0.17,Wunderground v.1.15,2013-10-06 13:39:00,
2013-10-06 09:44:00,65.5,65.2,29.65,West,274,7.0,7.0,99,0.04,,,0.17,Wunderground v.1.15,2013-10-06 13:44:00,
2013-10-06 09:49:00,65.6,65.3,29.65,WSW,257,6.0,7.0,99,0.19,,,0.19,Wunderground v.1.15,2013-10-06 13:49:00,
2013-10-06 09:54:00,65.5,65.2,29.65,West,271,5.0,6.0,99,1.32,,,0.24,Wunderground v.1.15,2013-10-06 13:54:00,
2013-10-06 09:59:00,65.5,65.2,29.64,WSW,252,6.0,6.0,99,0.19,,,0.26,Wunderground v.1.15,2013-10-06 13:59:00,
2013-10-06 10:04:00,65.6,65.3,29.64,West,268,6.0,10.0,99,0.07,,,0.26,Wunderground v.1.15,2013-10-06 14:04:00,
2013-10-06 10:09:00,65.6,65.3,29.64,WSW,250,8.0,10.0,99,0.05,,,0.26,Wunderground v.1.15,2013-10-06 14:09:00,
2013-10-06 10:14:00,65.7,65.4,29.64,WSW,242,8.0,8.0,99,0.00,,,0.26,Wunderground v.1.15,2013-10-06 14:14:00,
2013-10-06 10:19:00,65.8,65.5,29.63,WSW,248,6.0,8.0,99,0.00,,,0.26,Wunderground v.1.15,2013-10-06 14:19:00,
2013-10-06 10:24:00,66.0,65.7,29.63,SW,226,6.0,6.0,99,0.00,,,0.26,Wunderground v.1.15,2013-10-06 14:24:00,
2013-10-06 10:29:00,66.0,65.7,29.63,West,259,6.0,6.0,99,0.00,,,0.26,Wunderground v.1.15,2013-10-06 14:29:00,
2013-10-06 10:34:00,66.2,65.9,29.63,WSW,254,6.0,8.0,99,0.00,,,0.26,Wunderground v.1.15,2013-10-06 14:34:00,
2013-10-06 10:44:00,66.2,65.9,29.63,WSW,248,8.0,8.0,99,0.00,,,0.26,Wunderground v.1.15,2013-10-06 14:44:00,
2013-10-06 10:49:00,66.3,66.0,29.63,SSW,211,8.0,8.0,99,0.00,,,0.26,Wunderground v.1.15,2013-10-06 14:49:00,
2013-10-06 10:54:00,66.4,65.8,29.63,SW,226,8.0,8.0,98,0.00,,,0.26,Wunderground v.1.15,2013-10-06 14:54:00,
2013-10-06 10:59:00,66.5,65.9,29.63,WSW,247,7.0,8.0,98,0.00,,,0.26,Wunderground v.1.15,2013-10-06 14:59:00,
2013-10-06 11:04:00,66.5,65.9,29.63,WSW,251,8.0,8.0,98,0.00,,,0.26,Wunderground v.1.15,2013-10-06 15:04:00,
2013-10-06 11:09:00,66.6,66.0,29.62,WSW,254,9.0,9.0,98,0.00,,,0.26,Wunderground v.1.15,2013-10-06 15:09:00,
2013-10-06 11:14:00,66.8,66.2,29.62,WSW,250,8.0,8.0,98,0.00,,,0.26,Wunderground v.1.15,2013-10-06 15:14:00,
2013-10-06 11:19:00,67.0,66.4,29.62,West,259,8.0,13.0,98,0.00,,,0.26,Wunderground v.1.15,2013-10-06 15:19:00,
2013-10-06 11:24:00,67.1,66.5,29.62,West,259,7.0,7.0,98,0.00,,,0.26,Wunderground v.1.15,2013-10-06 15:24:00,
2013-10-06 11:29:00,67.2,66.3,29.62,West,280,7.0,8.0,97,0.00,,,0.26,Wunderground v.1.15,2013-10-06 15:29:00,
2013-10-06 11:34:00,67.4,66.5,29.62,WSW,252,8.0,8.0,97,0.00,,,0.26,Wunderground v.1.15,2013-10-06 15:34:00,
2013-10-06 11:39:00,67.5,66.6,29.62,West,260,8.0,8.0,97,0.00,,,0.26,Wunderground v.1.15,2013-10-06 15:39:00,
2013-10-06 11:44:00,67.6,66.4,29.62,WSW,255,8.0,8.0,96,0.00,,,0.26,Wunderground v.1.15,2013-10-06 15:44:00,
2013-10-06 11:49:00,67.6,66.4,29.62,WSW,246,6.0,8.0,96,0.00,,,0.26,Wunderground v.1.15,2013-10-06 15:49:00,
2013-10-06 11:54:00,67.7,66.5,29.62,WSW,239,6.0,8.0,96,0.00,,,0.26,Wunderground v.1.15,2013-10-06 15:54:00,
2013-10-06 11:59:00,67.9,66.7,29.62,West,263,6.0,8.0,96,0.00,,,0.26,Wunderground v.1.15,2013-10-06 15:59:00,
2013-10-06 12:04:00,68.0,66.8,29.62,WSW,250,3.0,3.0,96,0.00,,,0.26,Wunderground v.1.15,2013-10-06 16:04:00,
2013-10-06 12:09:00,68.1,66.9,29.62,WSW,250,2.0,4.0,96,0.00,,,0.26,Wunderground v.1.15,2013-10-06 16:09:00,
2013-10-06 12:14:00,68.1,66.6,29.62,WSW,247,3.0,3.0,95,0.00,,,0.26,Wunderground v.1.15,2013-10-06 16:14:00,
2013-10-06 12:19:00,68.3,66.8,29.62,WSW,247,3.0,4.0,95,0.00,,,0.26,Wunderground v.1.15,2013-10-06 16:19:00,
2013-10-06 12:24:00,68.5,67.0,29.63,WNW,285,2.0,2.0,95,0.00,,,0.26,Wunderground v.1.15,2013-10-06 16:24:00,
2013-10-06 12:29:00,68.6,67.1,29.63,WSW,244,2.0,4.0,95,0.00,,,0.26,Wunderground v.1.15,2013-10-06 16:29:00,
2013-10-06 12:34:00,68.7,66.9,29.62,WSW,244,2.0,4.0,94,0.00,,,0.26,Wunderground v.1.15,2013-10-06 16:34:00,
2013-10-06 12:39:00,68.7,66.9,29.62,WSW,251,3.0,8.0,94,0.00,,,0.26,Wunderground v.1.15,2013-10-06 16:39:00,
2013-10-06 12:44:00,68.9,66.8,29.61,West,264,6.0,7.0,93,0.00,,,0.26,Wunderground v.1.15,2013-10-06 16:44:00,
2013-10-06 12:49:00,69.2,67.1,29.61,West,270,7.0,7.0,93,0.00,,,0.26,Wunderground v.1.15,2013-10-06 16:49:00,
2013-10-06 12:54:00,69.4,67.3,29.61,West,270,4.0,4.0,93,0.00,,,0.26,Wunderground v.1.15,2013-10-06 16:54:00,
2013-10-06 12:59:00,69.7,67.6,29.60,West,270,3.0,4.0,93,0.00,,,0.26,Wunderground v.1.15,2013-10-06 16:59:00,
2013-10-06 13:04:00,70.0,67.9,29.60,West,265,3.0,4.0,93,0.00,,,0.26,Wunderground v.1.15,2013-10-06 17:04:00,
2013-10-06 13:09:00,70.2,67.8,29.60,WSW,239,4.0,5.0,92,0.00,,,0.26,Wunderground v.1.15,2013-10-06 17:09:00,
2013-10-06 13:14:00,70.6,68.2,29.59,WSW,250,6.0,7.0,92,0.00,,,0.26,Wunderground v.1.15,2013-10-06 17:14:00,
2013-10-06 13:19:00,71.2,68.4,29.59,SW,222,6.0,7.0,91,0.00,,,0.26,Wunderground v.1.15,2013-10-06 17:19:00,
2013-10-06 13:24:00,71.7,68.3,29.59,WSW,244,7.0,9.0,89,0.00,,,0.26,Wunderground v.1.15,2013-10-06 17:24:00,
2013-10-06 13:29:00,72.0,68.6,29.58,WSW,240,8.0,12.0,89,0.00,,,0.26,Wunderground v.1.15,2013-10-06 17:29:00,
2013-10-06 13:34:00,72.1,68.7,29.58,WSW,251,8.0,12.0,89,0.00,,,0.26,Wunderground v.1.15,2013-10-06 17:34:00,
2013-10-06 13:39:00,72.4,69.0,29.58,WSW,257,8.0,12.0,89,0.00,,,0.26,Wunderground v.1.15,2013-10-06 17:39:00,
2013-10-06 13:44:00,72.5,68.4,29.58,SW,227,8.0,8.0,87,0.00,,,0.26,Wunderground v.1.15,2013-10-06 17:44:00,
2013-10-06 13:49:00,72.7,68.6,29.57,SW,229,8.0,8.0,87,0.00,,,0.26,Wunderground v.1.15,2013-10-06 17:49:00,
2013-10-06 13:54:00,72.8,68.7,29.57,West,273,8.0,11.0,87,0.00,,,0.26,Wunderground v.1.15,2013-10-06 17:54:00,
2013-10-06 13:59:00,72.8,68.4,29.57,WSW,241,9.0,15.0,86,0.00,,,0.26,Wunderground v.1.15,2013-10-06 17:59:00,
2013-10-06 14:04:00,72.9,68.8,29.57,SW,226,10.0,10.0,87,0.00,,,0.26,Wunderground v.1.15,2013-10-06 18:04:00,
2013-10-06 14:09:00,73.0,68.6,29.57,WSW,250,9.0,10.0,86,0.00,,,0.26,Wunderground v.1.15,2013-10-06 18:09:00,
2013-10-06 14:14:00,73.1,68.7,29.57,SW,217,9.0,9.0,86,0.00,,,0.26,Wunderground v.1.15,2013-10-06 18:14:00,
2013-10-06 14:19:00,73.1,68.7,29.57,WSW,250,9.0,9.0,86,0.00,,,0.27,Wunderground v.1.15,2013-10-06 18:19:00,
2013-10-06 14:24:00,73.2,68.8,29.56,SW,219,10.0,10.0,86,0.00,,,0.27,Wunderground v.1.15,2013-10-06 18:24:00,
2013-10-06 14:29:00,73.4,68.6,29.56,WSW,240,10.0,10.0,85,0.00,,,0.27,Wunderground v.1.15,2013-10-06 18:29:00,
2013-10-06 14:34:00,73.5,68.7,29.56,SW,231,9.0,11.0,85,0.00,,,0.27,Wunderground v.1.15,2013-10-06 18:34:00,
2013-10-06 14:39:00,73.7,68.9,29.56,West,271,10.0,11.0,85,0.00,,,0.27,Wunderground v.1.15,2013-10-06 18:39:00,
2013-10-06 14:44:00,74.1,69.3,29.56,WSW,248,10.0,10.0,85,0.00,,,0.27,Wunderground v.1.15,2013-10-06 18:44:00,
2013-10-06 14:49:00,74.5,69.3,29.55,West,259,9.0,10.0,84,0.00,,,0.27,Wunderground v.1.15,2013-10-06 18:49:00,
2013-10-06 14:54:00,74.6,69.1,29.55,WSW,239,8.0,9.0,83,0.00,,,0.27,Wunderground v.1.15,2013-10-06 18:54:00,
2013-10-06 14:59:00,74.6,69.4,29.55,West,273,9.0,11.0,84,0.00,,,0.27,Wunderground v.1.15,2013-10-06 18:59:00,
2013-10-06 15:04:00,74.6,69.4,29.55,SW,229,9.0,9.0,84,0.00,,,0.27,Wunderground v.1.15,2013-10-06 19:04:00,
2013-10-06 15:09:00,74.5,69.3,29.55,SSW,205,9.0,9.0,84,0.00,,,0.27,Wunderground v.1.15,2013-10-06 19:09:00,
2013-10-06 15:14:00,74.4,69.2,29.55,WSW,248,10.0,10.0,84,0.00,,,0.27,Wunderground v.1.15,2013-10-06 19:14:00,
2013-10-06 15:19:00,74.6,69.4,29.55,WSW,250,10.0,10.0,84,0.00,,,0.27,Wunderground v.1.15,2013-10-06 19:19:00,
2013-10-06 15:24:00,75.0,69.5,29.55,WSW,255,8.0,8.0,83,0.00,,,0.27,Wunderground v.1.15,2013-10-06 19:24:00,
2013-10-06 15:29:00,75.3,69.8,29.55,SW,228,7.0,8.0,83,0.00,,,0.27,Wunderground v.1.15,2013-10-06 19:29:00,
2013-10-06 15:34:00,75.5,69.6,29.55,WSW,244,6.0,10.0,82,0.00,,,0.27,Wunderground v.1.15,2013-10-06 19:34:00,
2013-10-06 15:39:00,75.6,69.7,29.54,WSW,243,7.0,10.0,82,0.00,,,0.27,Wunderground v.1.15,2013-10-06 19:39:00,
2013-10-06 15:44:00,75.5,69.6,29.54,WSW,240,9.0,10.0,82,0.00,,,0.27,Wunderground v.1.15,2013-10-06 19:44:00,
2013-10-06 15:49:00,75.1,68.9,29.54,WSW,257,10.0,10.0,81,0.00,,,0.27,Wunderground v.1.15,2013-10-06 19:49:00,
2013-10-06 15:54:00,74.6,68.4,29.54,WSW,246,10.0,11.0,81,0.00,,,0.27,Wunderground v.1.15,2013-10-06 19:54:00,
2013-10-06 15:59:00,74.2,68.7,29.54,West,261,10.0,11.0,83,0.00,,,0.27,Wunderground v.1.15,2013-10-06 19:59:00,
2013-10-06 16:04:00,73.9,68.4,29.54,West,271,11.0,11.0,83,0.00,,,0.27,Wunderground v.1.15,2013-10-06 20:04:00,
2013-10-06 16:09:00,73.7,68.2,29.54,West,263,11.0,11.0,83,0.00,,,0.27,Wunderground v.1.15,2013-10-06 20:09:00,
2013-10-06 16:14:00,73.7,68.2,29.54,WSW,249,10.0,13.0,83,0.00,,,0.27,Wunderground v.1.15,2013-10-06 20:14:00,
2013-10-06 16:19:00,73.8,68.7,29.54,WSW,242,10.0,13.0,84,0.00,,,0.27,Wunderground v.1.15,2013-10-06 20:19:00,
2013-10-06 16:24:00,74.0,68.5,29.54,WSW,243,9.0,9.0,83,0.00,,,0.27,Wunderground v.1.15,2013-10-06 20:24:00,
2013-10-06 16:29:00,74.0,68.2,29.53,SW,229,8.0,9.0,82,0.00,,,0.27,Wunderground v.1.15,2013-10-06 20:29:00,
2013-10-06 16:34:00,74.1,68.6,29.53,West,263,7.0,10.0,83,0.00,,,0.27,Wunderground v.1.15,2013-10-06 20:34:00,
2013-10-06 16:39:00,73.6,67.8,29.53,WSW,238,8.0,12.0,82,0.00,,,0.27,Wunderground v.1.15,2013-10-06 20:39:00,
2013-10-06 16:44:00,73.0,67.5,29.53,WSW,242,10.0,10.0,83,0.00,,,0.27,Wunderground v.1.15,2013-10-06 20:44:00,
2013-10-06 16:49:00,72.4,66.9,29.53,WSW,245,11.0,11.0,83,0.00,,,0.27,Wunderground v.1.15,2013-10-06 20:49:00,
2013-10-06 16:54:00,72.2,67.1,29.53,SW,236,10.0,10.0,84,0.00,,,0.27,Wunderground v.1.15,2013-10-06 20:54:00,
2013-10-06 16:59:00,72.0,66.9,29.53,WSW,248,9.0,10.0,84,0.00,,,0.27,Wunderground v.1.15,2013-10-06 20:59:00,
2013-10-06 17:04:00,71.9,66.8,29.54,West,267,9.0,13.0,84,0.00,,,0.27,Wunderground v.1.15,2013-10-06 21:04:00,
2013-10-06 17:09:00,71.7,66.9,29.54,WSW,253,9.0,13.0,85,0.00,,,0.27,Wunderground v.1.15,2013-10-06 21:09:00,
2013-10-06 17:14:00,71.3,66.6,29.54,WSW,246,9.0,9.0,85,0.00,,,0.27,Wunderground v.1.15,2013-10-06 21:14:00,
2013-10-06 17:24:00,70.6,66.2,29.54,WSW,238,8.0,10.0,86,0.00,,,0.27,Wunderground v.1.15,2013-10-06 21:24:00,
2013-10-06 17:29:00,70.3,65.9,29.54,WSW,253,8.0,10.0,86,0.00,,,0.27,Wunderground v.1.15,2013-10-06 21:29:00,
2013-10-06 17:34:00,70.0,66.0,29.54,WSW,244,9.0,12.0,87,0.00,,,0.27,Wunderground v.1.15,2013-10-06 21:34:00,
2013-10-06 17:39:00,69.8,65.8,29.54,WSW,238,10.0,13.0,87,0.00,,,0.27,Wunderground v.1.15,2013-10-06 21:39:00,
2013-10-06 17:44:00,69.6,65.6,29.54,WSW,246,11.0,13.0,87,0.00,,,0.27,Wunderground v.1.15,2013-10-06 21:44:00,
2013-10-06 17:49:00,69.5,65.8,29.54,West,267,11.0,13.0,88,0.00,,,0.27,Wunderground v.1.15,2013-10-06 21:49:00,
2013-10-06 17:54:00,69.3,65.6,29.54,WSW,248,10.0,10.0,88,0.00,,,0.27,Wunderground v.1.15,2013-10-06 21:54:00,
2013-10-06 17:59:00,69.2,65.5,29.54,WSW,247,8.0,10.0,88,0.00,,,0.27,Wunderground v.1.15,2013-10-06 21:59:00,
2013-10-06 18:04:00,69.0,65.3,29.54,WSW,251,8.0,11.0,88,0.00,,,0.27,Wunderground v.1.15,2013-10-06 22:04:00,
2013-10-06 18:09:00,68.8,65.1,29.54,SW,215,8.0,11.0,88,0.00,,,0.27,Wunderground v.1.15,2013-10-06 22:09:00,
2013-10-06 18:19:00,68.3,64.6,29.54,West,278,11.0,16.0,88,0.00,,,0.27,Wunderground v.1.15,2013-10-06 22:19:00,
2013-10-06 18:24:00,68.1,64.7,29.54,WSW,254,12.0,12.0,89,0.00,,,0.27,Wunderground v.1.15,2013-10-06 22:24:00,
2013-10-06 18:59:00,66.8,63.8,29.54,SW,216,13.0,13.0,90,0.00,,,0.27,Wunderground v.1.15,2013-10-06 22:59:00,
2013-10-06 19:04:00,66.7,63.7,29.55,West,268,13.0,13.0,90,0.00,,,0.27,Wunderground v.1.15,2013-10-06 23:04:00,
2013-10-06 19:09:00,66.6,63.9,29.55,WSW,242,12.0,13.0,91,0.00,,,0.27,Wunderground v.1.15,2013-10-06 23:09:00,
2013-10-06 19:14:00,66.5,63.8,29.55,WSW,245,11.0,12.0,91,0.00,,,0.27,Wunderground v.1.15,2013-10-06 23:14:00,
2013-10-06 19:19:00,66.5,63.8,29.55,WSW,242,10.0,14.0,91,0.00,,,0.27,Wunderground v.1.15,2013-10-06 23:19:00,
2013-10-06 19:24:00,66.4,63.7,29.56,WSW,246,10.0,11.0,91,0.00,,,0.27,Wunderground v.1.15,2013-10-06 23:24:00,
2013-10-06 19:29:00,66.3,63.6,29.56,WSW,244,10.0,11.0,91,0.00,,,0.27,Wunderground v.1.15,2013-10-06 23:29:00,
2013-10-06 19:34:00,66.3,63.6,29.55,WSW,255,12.0,15.0,91,0.00,,,0.27,Wunderground v.1.15,2013-10-06 23:34:00,
2013-10-06 19:39:00,66.3,63.6,29.55,WSW,256,12.0,19.0,91,0.00,,,0.27,Wunderground v.1.15,2013-10-06 23:39:00,
2013-10-06 19:44:00,66.3,63.6,29.56,West,261,14.0,14.0,91,0.00,,,0.27,Wunderground v.1.15,2013-10-06 23:44:00,
2013-10-06 19:49:00,66.2,63.5,29.56,West,265,15.0,18.0,91,0.00,,,0.27,Wunderground v.1.15,2013-10-06 23:49:00,
2013-10-06 19:54:00,66.2,63.5,29.56,WSW,241,15.0,15.0,91,0.00,,,0.27,Wunderground v.1.15,2013-10-06 23:54:00,
2013-10-06 19:59:00,66.2,63.5,29.56,West,259,14.0,22.0,91,0.00,,,0.27,Wunderground v.1.15,2013-10-06 23:59:00,
2013-10-06 20:04:00,66.2,63.5,29.56,WSW,256,15.0,15.0,91,0.00,,,0.27,Wunderground v.1.15,2013-10-07 00:04:00,
2013-10-06 20:09:00,66.2,63.5,29.55,WSW,245,16.0,17.0,91,0.00,,,0.27,Wunderground v.1.15,2013-10-07 00:09:00,
2013-10-06 20:14:00,66.2,63.5,29.56,WSW,249,15.0,20.0,91,0.00,,,0.27,Wunderground v.1.15,2013-10-07 00:14:00,
2013-10-06 20:19:00,66.2,63.5,29.55,SW,236,16.0,23.0,91,0.00,,,0.27,Wunderground v.1.15,2013-10-07 00:19:00,
2013-10-06 20:24:00,66.1,63.4,29.55,WSW,244,18.0,20.0,91,0.00,,,0.27,Wunderground v.1.15,2013-10-07 00:24:00,
2013-10-06 20:34:00,66.0,63.3,29.56,WSW,247,16.0,16.0,91,0.00,,,0.27,Wunderground v.1.15,2013-10-07 00:34:00,
2013-10-06 20:39:00,65.9,63.2,29.55,WSW,245,15.0,17.0,91,0.00,,,0.27,Wunderground v.1.15,2013-10-07 00:39:00,
2013-10-06 20:44:00,66.1,63.4,29.56,WSW,252,17.0,19.0,91,0.00,,,0.27,Wunderground v.1.15,2013-10-07 00:44:00,
2013-10-06 20:49:00,66.3,63.6,29.56,WSW,239,18.0,20.0,91,0.00,,,0.27,Wunderground v.1.15,2013-10-07 00:49:00,
2013-10-06 20:54:00,66.3,63.6,29.54,WSW,240,17.0,21.0,91,0.00,,,0.27,Wunderground v.1.15,2013-10-07 00:54:00,
2013-10-06 20:59:00,66.3,63.3,29.55,West,270,17.0,21.0,90,0.00,,,0.27,Wunderground v.1.15,2013-10-07 00:59:00,
2013-10-06 21:04:00,66.3,63.3,29.56,WSW,247,17.0,17.0,90,0.00,,,0.27,Wunderground v.1.15,2013-10-07 01:04:00,
2013-10-06 21:09:00,66.2,63.2,29.56,WSW,248,16.0,17.0,90,0.00,,,0.27,Wunderground v.1.15,2013-10-07 01:09:00,
2013-10-06 21:14:00,66.2,63.5,29.55,WSW,255,17.0,17.0,91,0.00,,,0.27,Wunderground v.1.15,2013-10-07 01:14:00,
2013-10-06 21:19:00,66.2,63.2,29.56,WSW,257,17.0,17.0,90,0.00,,,0.27,Wunderground v.1.15,2013-10-07 01:19:00,
2013-10-06 21:24:00,66.2,63.2,29.56,WSW,250,17.0,17.0,90,0.00,,,0.27,Wunderground v.1.15,2013-10-07 01:24:00,
2013-10-06 21:29:00,66.2,63.2,29.55,WSW,251,18.0,18.0,90,0.00,,,0.27,Wunderground v.1.15,2013-10-07 01:29:00,
2013-10-06 21:34:00,66.1,63.1,29.55,WSW,241,17.0,17.0,90,0.00,,,0.27,Wunderground v.1.15,2013-10-07 01:34:00,
2013-10-06 21:39:00,66.1,63.1,29.55,WSW,240,16.0,17.0,90,0.00,,,0.27,Wunderground v.1.15,2013-10-07 01:39:00,
2013-10-06 21:44:00,66.0,63.3,29.55,West,260,15.0,15.0,91,0.00,,,0.27,Wunderground v.1.15,2013-10-07 01:44:00,
2013-10-06 21:49:00,66.0,63.0,29.55,WSW,255,15.0,23.0,90,0.00,,,0.27,Wunderground v.1.15,2013-10-07 01:49:00,
2013-10-06 21:54:00,65.9,63.2,29.55,WSW,251,14.0,14.0,91,0.00,,,0.27,Wunderground v.1.15,2013-10-07 01:54:00,
2013-10-06 21:59:00,65.8,63.1,29.55,SW,228,13.0,14.0,91,0.00,,,0.27,Wunderground v.1.15,2013-10-07 01:59:00,
2013-10-06 22:04:00,65.8,63.1,29.55,West,263,12.0,18.0,91,0.00,,,0.27,Wunderground v.1.15,2013-10-07 02:04:00,
2013-10-06 22:14:00,65.8,63.1,29.55,WSW,257,16.0,16.0,91,0.00,,,0.27,Wunderground v.1.15,2013-10-07 02:14:00,
2013-10-06 22:19:00,65.7,63.0,29.54,SW,236,14.0,16.0,91,0.00,,,0.27,Wunderground v.1.15,2013-10-07 02:19:00,
2013-10-06 22:24:00,65.6,62.9,29.54,WSW,256,13.0,13.0,91,0.00,,,0.27,Wunderground v.1.15,2013-10-07 02:24:00,
2013-10-06 22:29:00,65.6,62.9,29.54,SW,217,13.0,13.0,91,0.00,,,0.27,Wunderground v.1.15,2013-10-07 02:29:00,
2013-10-06 22:34:00,65.7,63.0,29.54,WSW,243,14.0,17.0,91,0.00,,,0.27,Wunderground v.1.15,2013-10-07 02:34:00,
2013-10-06 22:39:00,65.7,63.0,29.54,West,262,15.0,17.0,91,0.00,,,0.27,Wunderground v.1.15,2013-10-07 02:39:00,
2013-10-06 22:44:00,65.7,63.0,29.54,WSW,247,14.0,15.0,91,0.00,,,0.27,Wunderground v.1.15,2013-10-07 02:44:00,
2013-10-06 22:49:00,65.7,63.0,29.54,West,260,15.0,15.0,91,0.00,,,0.27,Wunderground v.1.15,2013-10-07 02:49:00,
2013-10-06 22:54:00,65.7,63.0,29.54,WSW,244,14.0,15.0,91,0.00,,,0.27,Wunderground v.1.15,2013-10-07 02:54:00,
2013-10-06 22:59:00,65.7,63.3,29.54,WSW,258,13.0,15.0,92,0.00,,,0.27,Wunderground v.1.15,2013-10-07 02:59:00,
2013-10-06 23:04:00,65.7,63.0,29.54,SSW,213,14.0,14.0,91,0.00,,,0.27,Wunderground v.1.15,2013-10-07 03:04:00,
2013-10-06 23:09:00,65.7,63.0,29.54,WSW,247,15.0,18.0,91,0.00,,,0.27,Wunderground v.1.15,2013-10-07 03:09:00,
2013-10-06 23:14:00,65.7,63.0,29.54,WSW,249,15.0,15.0,91,0.00,,,0.27,Wunderground v.1.15,2013-10-07 03:14:00,
2013-10-06 23:19:00,65.6,62.9,29.53,SW,228,15.0,15.0,91,0.00,,,0.27,Wunderground v.1.15,2013-10-07 03:19:00,
2013-10-06 23:24:00,65.5,62.8,29.53,SW,236,13.0,14.0,91,0.00,,,0.27,Wunderground v.1.15,2013-10-07 03:24:00,
2013-10-06 23:29:00,65.5,62.8,29.54,West,259,13.0,18.0,91,0.00,,,0.27,Wunderground v.1.15,2013-10-07 03:29:00,
2013-10-06 23:34:00,65.5,62.8,29.53,WSW,238,14.0,16.0,91,0.00,,,0.27,Wunderground v.1.15,2013-10-07 03:34:00,
2013-10-06 23:39:00,65.4,62.7,29.52,West,259,15.0,16.0,91,0.00,,,0.27,Wunderground v.1.15,2013-10-07 03:39:00,
2013-10-06 23:44:00,65.4,62.7,29.53,WSW,255,14.0,19.0,91,0.00,,,0.27,Wunderground v.1.15,2013-10-07 03:44:00,
2013-10-06 23:49:00,65.4,62.7,29.53,West,259,13.0,19.0,91,0.00,,,0.27,Wunderground v.1.15,2013-10-07 03:49:00,
2013-10-06 23:54:00,65.4,62.7,29.53,WSW,254,14.0,14.0,91,0.00,,,0.27,Wunderground v.1.15,2013-10-07 03:54:00,
2013-10-06 23:59:00,65.3,62.6,29.53,WSW,248,16.0,19.0,91,0.00,,,0.27,Wunderground v.1.15,2013-10-07 03:59:00,